Time;durP1;ratioP1;P1;durP2;ratioP2;P2;SDS_P1;SDS_P2;PMS_P1;PMS_P2;Temp;Humidity;BMP_temperature;BMP_pressure;BME280_temperature;BME280_humidity;BME280_pressure;Samples;Min_cycle;Max_cycle;Signal;HPM_P1;HPM_P2
2023/05/21 00:01:52;;;;;;;7.90;6.72;;;14.00;99.90;;;;;;4981021;28;89535;-31
2023/05/21 00:04:18;;;;;;;6.95;4.55;;;14.00;99.90;;;;;;4980410;28;89810;-33
2023/05/21 00:06:44;;;;;;;8.55;5.75;;;14.00;99.90;;;;;;4981361;28;90258;-32
2023/05/21 00:09:11;;;;;;;5.32;4.75;;;14.00;99.90;;;;;;4980886;28;90098;-30
2023/05/21 00:11:37;;;;;;;8.97;5.43;;;14.00;99.90;;;;;;4980458;28;89490;-32
2023/05/21 00:14:02;;;;;;;7.45;6.40;;;14.20;99.90;;;;;;4982023;28;89544;-31
2023/05/21 00:16:28;;;;;;;8.65;5.38;;;14.10;99.90;;;;;;4980232;28;90100;-31
2023/05/21 00:18:54;;;;;;;7.78;5.25;;;14.10;99.90;;;;;;4981770;28;89994;-33
2023/05/21 00:21:21;;;;;;;9.90;5.32;;;14.10;99.90;;;;;;4980466;28;89755;-34
2023/05/21 00:23:48;;;;;;;9.38;4.88;;;14.00;99.90;;;;;;4980086;28;90630;-31
2023/05/21 00:26:14;;;;;;;6.63;6.03;;;14.00;99.90;;;;;;4980773;28;89783;-34
2023/05/21 00:28:40;;;;;;;6.60;5.70;;;14.00;99.90;;;;;;4981432;28;89667;-33
2023/05/21 00:31:05;;;;;;;5.70;4.78;;;13.90;99.90;;;;;;4980543;28;88581;-33
2023/05/21 00:33:31;;;;;;;7.32;6.32;;;13.90;99.90;;;;;;4981705;28;89146;-31
2023/05/21 00:35:57;;;;;;;6.25;5.72;;;13.90;99.90;;;;;;4980201;28;90025;-32
2023/05/21 00:38:22;;;;;;;6.22;5.28;;;13.90;99.90;;;;;;4980669;28;89705;-34
2023/05/21 00:40:49;;;;;;;8.73;5.43;;;13.90;99.90;;;;;;4980122;28;89485;-33
2023/05/21 00:43:15;;;;;;;8.63;5.65;;;13.80;99.90;;;;;;4980803;28;90003;-37
2023/05/21 00:45:43;;;;;;;9.73;6.13;;;13.90;99.90;;;;;;4981060;28;90343;-33
2023/05/21 00:48:10;;;;;;;7.63;6.10;;;13.90;99.90;;;;;;4978330;28;90452;-32
2023/05/21 00:50:38;;;;;;;14.35;7.38;;;13.80;99.90;;;;;;4980424;28;90413;-32
2023/05/21 00:53:08;;;;;;;;;;;13.90;99.90;;;;;;5009641;28;89699;-35
2023/05/21 00:55:35;;;;;;;5.65;5.00;;;13.90;99.90;;;;;;5021824;27;89694;-32
2023/05/21 00:58:03;;;;;;;8.73;6.28;;;13.90;99.90;;;;;;5020756;27;90053;-33
2023/05/21 01:00:33;;;;;;;7.20;5.05;;;13.90;99.90;;;;;;5020276;27;89727;-32
2023/05/21 01:02:59;;;;;;;6.18;5.55;;;13.90;99.90;;;;;;5021228;27;90082;-32
2023/05/21 01:05:28;;;;;;;6.50;4.60;;;13.80;99.90;;;;;;5019951;27;88892;-31
2023/05/21 01:07:55;;;;;;;6.43;5.40;;;13.90;99.90;;;;;;5020673;28;89762;-34
2023/05/21 01:10:22;;;;;;;6.10;4.85;;;13.80;99.90;;;;;;5020173;27;90149;-31
2023/05/21 01:12:48;;;;;;;8.27;5.25;;;13.80;99.90;;;;;;5020431;28;90122;-32
2023/05/21 01:15:14;;;;;;;6.70;5.20;;;13.80;99.90;;;;;;5019771;27;90562;-32
2023/05/21 01:17:40;;;;;;;5.70;5.20;;;13.80;99.90;;;;;;5019934;28;89949;-31
2023/05/21 01:20:09;;;;;;;5.55;4.50;;;13.80;99.90;;;;;;5020568;27;90168;-32
2023/05/21 01:22:38;;;;;;;5.97;5.13;;;13.80;99.90;;;;;;5020217;28;88680;-32
2023/05/21 01:25:04;;;;;;;8.18;6.13;;;13.80;99.90;;;;;;5019877;27;90029;-33
2023/05/21 01:27:30;;;;;;;6.15;5.63;;;13.90;99.90;;;;;;5019676;28;89687;-31
2023/05/21 01:29:56;;;;;;;6.40;4.80;;;13.80;99.90;;;;;;5020265;28;89853;-30
2023/05/21 01:32:55;;;;;;;14.73;6.25;;;13.90;99.90;;;;;;5019872;27;89803;-30
2023/05/21 01:35:26;;;;;;;6.28;4.85;;;13.80;99.90;;;;;;5006658;28;90089;-34
2023/05/21 01:38:06;;;;;;;5.95;5.35;;;13.80;99.90;;;;;;5019041;28;90819;-32
2023/05/21 01:40:52;;;;;;;8.18;5.57;;;13.80;99.90;;;;;;5020389;27;90522;-33
2023/05/21 01:43:19;;;;;;;5.65;5.07;;;13.80;99.90;;;;;;5018326;28;87994;-32
2023/05/21 01:45:47;;;;;;;6.65;5.35;;;13.80;99.90;;;;;;5019302;27;90131;-32
2023/05/21 01:48:16;;;;;;;4.75;4.35;;;13.80;99.90;;;;;;5019241;27;90306;-32
2023/05/21 01:50:42;;;;;;;7.97;6.43;;;13.80;99.90;;;;;;5020284;27;89569;-30
2023/05/21 01:53:08;;;;;;;5.13;4.63;;;13.80;99.90;;;;;;5019814;27;88346;-32
2023/05/21 01:55:38;;;;;;;7.30;5.07;;;13.80;99.90;;;;;;5019912;28;88571;-32
2023/05/21 01:58:03;;;;;;;6.65;5.53;;;13.80;99.90;;;;;;5019229;27;89618;-33
2023/05/21 02:00:31;;;;;;;7.15;5.28;;;13.70;99.90;;;;;;5019517;28;89806;-33
2023/05/21 02:02:57;;;;;;;7.80;5.43;;;13.70;99.90;;;;;;5019533;27;90367;-31
2023/05/21 02:05:23;;;;;;;6.47;5.88;;;13.70;99.90;;;;;;5018555;28;90852;-33
2023/05/21 02:07:50;;;;;;;7.40;5.53;;;13.60;99.90;;;;;;5019515;28;88849;-34
2023/05/21 02:10:16;;;;;;;6.27;5.23;;;13.50;99.90;;;;;;5019847;27;89711;-32
2023/05/21 02:12:42;;;;;;;7.75;5.53;;;13.50;99.90;;;;;;5019718;28;89304;-35
2023/05/21 02:15:08;;;;;;;6.90;6.30;;;13.50;99.90;;;;;;5019165;28;90776;-32
2023/05/21 02:17:34;;;;;;;5.90;5.32;;;13.50;99.90;;;;;;5018113;28;89971;-32
2023/05/21 02:20:09;;;;;;;6.80;5.72;;;13.50;99.90;;;;;;5019709;28;89606;-35
2023/05/21 02:22:36;;;;;;;5.78;4.68;;;13.50;99.90;;;;;;5019589;28;88700;-35
2023/05/21 02:25:02;;;;;;;14.15;5.68;;;13.40;99.90;;;;;;5019328;27;90282;-31
2023/05/21 02:27:30;;;;;;;7.80;6.80;;;13.50;99.90;;;;;;5018071;27;90226;-32
2023/05/21 02:29:56;;;;;;;;;;;13.50;99.90;;;;;;5019482;28;90362;-31
2023/05/21 02:32:22;;;;;;;8.88;6.57;;;13.40;99.90;;;;;;5020187;28;89050;-32
2023/05/21 02:34:48;;;;;;;5.55;5.05;;;13.40;99.90;;;;;;5019015;28;90550;-32
2023/05/21 02:37:14;;;;;;;8.05;6.03;;;13.50;99.90;;;;;;5018840;28;89884;-34
2023/05/21 02:39:40;;;;;;;10.38;6.43;;;13.40;99.90;;;;;;5018858;28;89453;-32
2023/05/21 02:42:05;;;;;;;8.63;6.45;;;13.50;99.90;;;;;;5019173;28;89048;-33
2023/05/21 02:44:31;;;;;;;7.78;5.45;;;13.50;99.90;;;;;;5018919;28;90209;-34
2023/05/21 02:46:56;;;;;;;10.07;5.72;;;13.40;99.90;;;;;;5018807;28;89725;-33
2023/05/21 02:49:22;;;;;;;8.18;5.70;;;13.40;99.90;;;;;;5018150;28;89079;-34
2023/05/21 02:51:47;;;;;;;14.20;6.18;;;13.40;99.90;;;;;;5018197;28;89773;-33
2023/05/21 02:54:14;;;;;;;13.70;5.72;;;13.40;99.90;;;;;;5018532;28;90167;-33
2023/05/21 02:56:40;;;;;;;8.73;6.15;;;13.50;99.90;;;;;;5018680;28;89061;-31
2023/05/21 02:59:06;;;;;;;10.45;6.53;;;13.50;99.90;;;;;;5019125;27;89443;-32
2023/05/21 03:01:31;;;;;;;5.95;5.38;;;13.50;99.90;;;;;;5018537;28;88192;-32
2023/05/21 03:03:57;;;;;;;7.60;6.22;;;13.40;99.90;;;;;;5018760;28;89986;-35
2023/05/21 03:06:22;;;;;;;7.55;6.75;;;13.40;99.90;;;;;;5018477;28;89683;-33
2023/05/21 03:08:48;;;;;;;10.25;6.47;;;13.40;99.90;;;;;;5018770;27;89674;-33
2023/05/21 03:11:14;;;;;;;8.60;7.22;;;13.50;99.90;;;;;;5018783;28;89471;-31
2023/05/21 03:13:41;;;;;;;9.80;6.97;;;13.40;99.90;;;;;;5018567;28;89823;-34
2023/05/21 03:16:07;;;;;;;10.27;7.18;;;13.40;99.90;;;;;;5017744;28;90405;-32
2023/05/21 03:18:32;;;;;;;9.15;6.07;;;13.40;99.90;;;;;;5018447;28;91886;-31
2023/05/21 03:20:58;;;;;;;12.63;6.57;;;13.30;99.90;;;;;;5018357;28;88143;-30
2023/05/21 03:23:23;;;;;;;15.20;8.13;;;13.40;99.90;;;;;;5018247;28;90247;-35
2023/05/21 03:25:49;;;;;;;7.93;6.20;;;13.30;99.90;;;;;;5018087;28;90117;-33
2023/05/21 03:28:16;;;;;;;12.25;7.32;;;13.30;99.90;;;;;;5018635;27;90456;-34
2023/05/21 03:30:45;;;;;;;11.73;8.95;;;13.20;99.90;;;;;;5018665;28;87941;-32
2023/05/21 03:33:12;;;;;;;9.60;6.88;;;13.20;99.90;;;;;;5018494;27;89899;-31
2023/05/21 03:35:38;;;;;;;11.37;6.37;;;13.20;99.90;;;;;;5018386;27;90259;-29
2023/05/21 03:38:03;;;;;;;13.50;6.22;;;13.20;99.90;;;;;;5018737;28;89640;-32
2023/05/21 03:40:29;;;;;;;9.30;6.95;;;13.20;99.90;;;;;;5020888;28;90378;-32
2023/05/21 03:42:55;;;;;;;8.50;7.18;;;13.20;99.90;;;;;;5021472;28;89788;-34
2023/05/21 03:45:20;;;;;;;11.80;6.95;;;13.20;99.90;;;;;;5021071;28;91472;-32
2023/05/21 03:47:47;;;;;;;8.93;6.88;;;13.20;99.90;;;;;;5021304;28;89491;-32
2023/05/21 03:50:13;;;;;;;10.18;6.63;;;13.20;99.90;;;;;;5022248;27;88326;-32
2023/05/21 03:52:38;;;;;;;7.20;6.40;;;13.10;99.90;;;;;;5020837;28;90472;-34
2023/05/21 03:55:05;;;;;;;8.73;5.80;;;13.10;99.90;;;;;;5021526;28;90526;-32
2023/05/21 03:57:31;;;;;;;5.57;4.97;;;13.20;99.90;;;;;;5019929;28;90018;-33
2023/05/21 03:59:57;;;;;;;8.77;6.38;;;13.10;99.90;;;;;;5021703;28;88132;-34
2023/05/21 04:02:26;;;;;;;5.90;5.40;;;13.10;99.90;;;;;;5020910;27;90133;-36
2023/05/21 04:04:52;;;;;;;6.38;5.57;;;13.10;99.90;;;;;;5020808;28;91849;-33
2023/05/21 04:07:18;;;;;;;15.43;6.82;;;13.10;99.90;;;;;;5018917;28;89738;-32
2023/05/21 04:09:45;;;;;;;6.18;5.43;;;13.00;99.90;;;;;;5021063;28;89162;-34
2023/05/21 04:12:10;;;;;;;7.20;5.53;;;13.10;99.90;;;;;;5021365;28;90388;-32
2023/05/21 04:14:36;;;;;;;15.40;7.43;;;13.10;99.90;;;;;;5021304;28;89512;-33
2023/05/21 04:17:05;;;;;;;7.60;6.32;;;13.10;99.90;;;;;;5068726;22;89688;-30
2023/05/21 04:19:32;;;;;;;7.78;6.97;;;13.00;99.90;;;;;;5021146;28;88856;-33
2023/05/21 04:21:58;;;;;;;9.45;6.22;;;12.90;99.90;;;;;;5021521;28;90268;-32
2023/05/21 04:24:23;;;;;;;8.82;6.82;;;13.00;99.90;;;;;;5020327;28;89359;-33
2023/05/21 04:26:49;;;;;;;11.63;6.38;;;13.00;99.90;;;;;;5021840;28;89594;-34
2023/05/21 04:29:20;;;;;;;10.23;5.78;;;13.00;99.90;;;;;;5020111;28;89032;-33
2023/05/21 04:31:48;;;;;;;9.15;5.65;;;12.90;99.90;;;;;;5020356;28;90251;-35
2023/05/21 04:34:17;;;;;;;12.23;7.00;;;13.00;99.90;;;;;;5020388;28;90008;-33
2023/05/21 04:36:46;;;;;;;7.32;6.45;;;13.00;99.90;;;;;;5020359;28;89169;-32
2023/05/21 04:39:13;;;;;;;13.18;5.45;;;13.00;99.90;;;;;;5020563;28;88020;-30
2023/05/21 04:41:39;;;;;;;8.18;5.75;;;13.00;99.90;;;;;;5020822;28;90461;-35
2023/05/21 04:44:07;;;;;;;11.20;5.60;;;13.00;99.90;;;;;;5020976;28;90085;-33
2023/05/21 04:46:33;;;;;;;6.85;5.05;;;13.10;99.90;;;;;;5020233;28;89562;-31
2023/05/21 04:49:02;;;;;;;8.35;5.38;;;13.10;99.90;;;;;;5020453;28;89287;-36
2023/05/21 04:51:29;;;;;;;6.95;5.18;;;13.00;99.90;;;;;;5020596;28;89484;-33
2023/05/21 04:53:56;;;;;;;6.03;4.75;;;13.10;99.90;;;;;;5019848;28;92205;-32
2023/05/21 04:56:25;;;;;;;7.43;5.65;;;13.20;99.90;;;;;;5019967;28;90079;-31
2023/05/21 04:58:53;;;;;;;5.20;4.65;;;13.20;99.90;;;;;;5020290;28;88793;-33
2023/05/21 05:01:22;;;;;;;11.17;5.77;;;13.10;99.90;;;;;;5020495;28;90338;-33
2023/05/21 05:03:48;;;;;;;6.30;5.80;;;13.10;99.90;;;;;;5020713;28;90512;-33
2023/05/21 05:06:14;;;;;;;8.32;5.05;;;13.10;99.90;;;;;;5020535;28;89173;-31
2023/05/21 05:08:40;;;;;;;8.50;5.38;;;13.10;99.90;;;;;;5020546;28;89462;-33
2023/05/21 05:11:06;;;;;;;10.23;5.50;;;13.10;99.90;;;;;;5020373;28;90173;-36
2023/05/21 05:13:33;;;;;;;6.75;5.13;;;13.20;99.90;;;;;;5020188;28;89229;-31
2023/05/21 05:15:59;;;;;;;10.65;6.00;;;13.10;99.90;;;;;;5019206;28;89084;-33
2023/05/21 05:18:25;;;;;;;7.20;4.93;;;13.10;99.90;;;;;;5019822;28;88937;-30
2023/05/21 05:20:50;;;;;;;9.10;5.82;;;13.10;99.90;;;;;;5019909;28;90178;-30
2023/05/21 05:23:16;;;;;;;9.00;5.22;;;13.10;99.90;;;;;;5019318;28;89665;-36
2023/05/21 05:25:42;;;;;;;7.13;5.35;;;13.20;99.90;;;;;;5020434;28;89917;-31
2023/05/21 05:28:07;;;;;;;8.18;4.30;;;13.20;99.90;;;;;;5019429;27;88900;-35
2023/05/21 05:30:34;;;;;;;15.38;5.47;;;13.30;99.90;;;;;;5019963;28;90099;-32
2023/05/21 05:33:00;;;;;;;8.35;6.03;;;13.20;99.90;;;;;;5019467;28;90736;-33
2023/05/21 05:35:25;;;;;;;8.80;6.07;;;13.20;99.90;;;;;;5019873;28;90217;-35
2023/05/21 05:37:51;;;;;;;7.20;6.10;;;13.20;99.90;;;;;;5020384;28;89305;-33
2023/05/21 05:40:16;;;;;;;5.95;5.28;;;13.20;99.90;;;;;;5019825;28;90356;-34
2023/05/21 05:42:42;;;;;;;6.85;4.65;;;13.20;99.90;;;;;;5019759;27;89371;-31
2023/05/21 05:45:08;;;;;;;5.88;5.18;;;13.20;99.90;;;;;;5019821;28;90781;-31
2023/05/21 05:47:34;;;;;;;7.10;5.75;;;13.20;99.90;;;;;;5020138;28;88045;-32
2023/05/21 05:50:00;;;;;;;5.28;4.32;;;13.30;99.90;;;;;;5019966;28;91067;-33
2023/05/21 05:52:25;;;;;;;8.52;5.38;;;13.40;99.90;;;;;;5019827;28;89300;-33
2023/05/21 05:54:51;;;;;;;7.45;5.00;;;13.40;99.90;;;;;;5019683;27;89732;-35
2023/05/21 05:57:16;;;;;;;7.70;4.70;;;13.40;99.90;;;;;;5019281;28;88530;-31
2023/05/21 05:59:42;;;;;;;7.10;5.82;;;13.40;99.90;;;;;;5019702;28;90125;-34
2023/05/21 06:02:07;;;;;;;9.82;5.15;;;13.40;99.90;;;;;;5018106;28;89853;-35
2023/05/21 06:04:33;;;;;;;7.88;4.45;;;13.40;99.90;;;;;;5020127;28;89445;-31
2023/05/21 06:06:59;;;;;;;6.00;4.90;;;13.50;99.90;;;;;;5019108;28;89798;-33
2023/05/21 06:09:25;;;;;;;7.93;5.57;;;13.60;99.90;;;;;;5019062;28;90316;-32
2023/05/21 06:11:50;;;;;;;5.80;4.32;;;13.60;99.90;;;;;;5020217;28;89626;-30
2023/05/21 06:14:16;;;;;;;6.38;4.82;;;13.60;99.90;;;;;;5019607;27;89816;-34
2023/05/21 06:16:42;;;;;;;5.38;4.88;;;13.70;99.90;;;;;;5019477;28;88181;-36
2023/05/21 06:19:07;;;;;;;5.60;4.25;;;13.70;99.90;;;;;;5018814;27;90374;-33
2023/05/21 06:21:33;;;;;;;6.28;4.80;;;13.70;99.90;;;;;;5001120;28;89258;-36
2023/05/21 06:23:59;;;;;;;8.55;4.25;;;13.80;99.90;;;;;;5019361;28;89977;-33
2023/05/21 06:26:25;;;;;;;5.50;4.63;;;13.90;99.90;;;;;;5018280;28;89548;-36
2023/05/21 06:28:50;;;;;;;7.15;4.65;;;13.90;99.90;;;;;;5017474;28;90151;-35
2023/05/21 06:31:16;;;;;;;6.88;5.05;;;13.90;99.90;;;;;;5015293;28;89662;-33
2023/05/21 06:33:41;;;;;;;9.25;4.60;;;14.00;99.90;;;;;;5016855;28;91026;-32
2023/05/21 06:36:07;;;;;;;5.47;4.63;;;14.00;99.90;;;;;;5016724;28;88359;-33
2023/05/21 06:38:33;;;;;;;6.97;4.15;;;14.10;99.90;;;;;;5017501;28;90161;-32
2023/05/21 06:40:58;;;;;;;7.40;4.10;;;14.10;99.90;;;;;;5017674;28;89237;-30
2023/05/21 06:43:24;;;;;;;8.40;5.40;;;14.20;99.90;;;;;;5015808;28;89493;-35
2023/05/21 06:45:50;;;;;;;5.45;4.43;;;14.30;99.90;;;;;;5018014;28;89030;-33
2023/05/21 06:48:16;;;;;;;7.93;5.05;;;14.30;99.90;;;;;;5016776;28;91112;-33
2023/05/21 06:50:42;;;;;;;9.77;4.40;;;14.30;99.90;;;;;;5016852;28;89307;-34
2023/05/21 06:53:08;;;;;;;10.43;5.28;;;14.30;99.90;;;;;;5016909;28;90883;-32
2023/05/21 06:55:33;;;;;;;5.00;4.30;;;14.30;99.90;;;;;;5016199;28;89644;-31
2023/05/21 06:57:59;;;;;;;8.45;6.15;;;14.30;99.90;;;;;;5016609;28;90004;-34
2023/05/21 07:00:25;;;;;;;10.50;4.70;;;14.40;99.90;;;;;;5015954;28;89603;-34
2023/05/21 07:02:50;;;;;;;6.30;4.93;;;14.40;99.90;;;;;;5017288;28;89364;-32
2023/05/21 07:05:16;;;;;;;8.95;4.32;;;14.50;99.90;;;;;;5016772;28;89557;-33
2023/05/21 07:07:42;;;;;;;5.45;4.95;;;14.60;99.90;;;;;;5016016;28;90273;-36
2023/05/21 07:10:08;;;;;;;6.25;5.22;;;14.50;99.90;;;;;;5016584;28;90652;-35
2023/05/21 07:12:34;;;;;;;7.85;5.78;;;14.60;99.90;;;;;;5017885;27;89385;-31
2023/05/21 07:14:59;;;;;;;6.70;5.05;;;14.60;99.90;;;;;;5020721;28;88096;-33
2023/05/21 07:17:25;;;;;;;8.45;4.90;;;14.60;99.90;;;;;;5019546;28;90037;-33
2023/05/21 07:19:50;;;;;;;8.18;4.60;;;14.60;99.90;;;;;;5019039;28;91014;-34
2023/05/21 07:22:16;;;;;;;7.53;4.65;;;14.70;99.90;;;;;;5019640;28;89685;-33
2023/05/21 07:24:42;;;;;;;10.25;5.25;;;14.80;99.90;;;;;;5019755;28;88664;-34
2023/05/21 07:27:07;;;;;;;6.53;5.00;;;14.80;99.90;;;;;;5004388;28;90846;-31
2023/05/21 07:29:33;;;;;;;9.02;6.45;;;14.90;99.90;;;;;;4998934;28;89903;-31
2023/05/21 07:31:58;;;;;;;5.93;4.93;;;15.00;99.90;;;;;;5006457;28;90247;-32
2023/05/21 07:34:25;;;;;;;6.72;4.38;;;15.00;99.90;;;;;;5019378;28;88210;-34
2023/05/21 07:36:50;;;;;;;9.23;4.15;;;15.10;99.90;;;;;;5020282;28;89791;-33
2023/05/21 07:39:16;;;;;;;5.65;4.78;;;15.10;99.90;;;;;;5016009;28;89719;-32
2023/05/21 07:41:42;;;;;;;6.97;5.13;;;15.10;99.90;;;;;;5004856;28;90294;-31
2023/05/21 07:44:08;;;;;;;5.82;5.07;;;15.10;99.90;;;;;;4998920;28;89824;-35
2023/05/21 07:46:33;;;;;;;7.97;4.32;;;15.20;99.90;;;;;;4998937;28;89783;-35
2023/05/21 07:48:59;;;;;;;8.25;5.65;;;15.20;99.90;;;;;;5001424;28;89458;-34
2023/05/21 07:51:25;;;;;;;23.42;5.90;;;15.30;99.90;;;;;;5008274;28;89580;-31
2023/05/21 07:53:51;;;;;;;7.10;5.75;;;15.40;99.90;;;;;;4989498;28;89902;-34
2023/05/21 07:56:16;;;;;;;8.25;6.20;;;15.40;99.90;;;;;;5007951;28;89030;-31
2023/05/21 07:58:44;;;;;;;7.65;5.03;;;15.50;99.90;;;;;;5002582;28;89187;-33
2023/05/21 08:01:10;;;;;;;7.82;5.85;;;15.30;99.90;;;;;;4999101;28;89804;-32
2023/05/21 08:03:36;;;;;;;7.80;4.55;;;15.40;99.90;;;;;;5003973;28;90102;-31
2023/05/21 08:06:02;;;;;;;5.50;4.40;;;15.60;99.90;;;;;;4998145;28;90226;-31
2023/05/21 08:08:28;;;;;;;8.10;5.70;;;15.70;99.90;;;;;;4997741;28;90666;-34
2023/05/21 08:10:54;;;;;;;9.35;5.72;;;15.80;99.90;;;;;;4998702;28;90718;-30
2023/05/21 08:13:19;;;;;;;6.07;5.43;;;15.70;99.90;;;;;;5002573;28;88468;-33
2023/05/21 08:15:45;;;;;;;8.77;5.88;;;15.80;99.90;;;;;;5006403;28;89424;-32
2023/05/21 08:18:11;;;;;;;9.90;6.53;;;15.80;99.90;;;;;;4998808;28;89725;-35
2023/05/21 08:20:36;;;;;;;8.75;4.90;;;15.80;99.90;;;;;;4999211;28;89723;-31
2023/05/21 08:23:02;;;;;;;8.98;5.15;;;15.90;99.90;;;;;;4998743;28;89846;-33
2023/05/21 08:25:28;;;;;;;5.95;4.90;;;15.80;99.90;;;;;;4999889;28;91639;-33
2023/05/21 08:27:55;;;;;;;8.27;5.75;;;15.80;99.90;;;;;;5003646;28;89372;-36
2023/05/21 08:30:20;;;;;;;10.07;5.78;;;15.80;99.90;;;;;;5008647;28;89761;-32
2023/05/21 08:32:47;;;;;;;7.35;5.95;;;15.90;99.90;;;;;;5009674;28;90750;-35
2023/05/21 08:35:12;;;;;;;8.07;5.35;;;15.90;99.90;;;;;;5018395;28;91682;-32
2023/05/21 08:37:38;;;;;;;11.55;6.50;;;16.00;99.90;;;;;;5018323;28;89777;-31
2023/05/21 08:40:05;;;;;;;8.48;6.28;;;16.10;99.90;;;;;;5018614;28;89576;-36
2023/05/21 08:42:48;;;;;;;6.93;5.65;;;16.10;99.90;;;;;;5017956;28;88393;-34
2023/05/21 08:45:21;;;;;;;9.30;5.50;;;16.40;99.90;;;;;;5018378;28;90402;-32
2023/05/21 08:47:51;;;;;;;6.78;5.95;;;16.40;99.90;;;;;;5017364;28;89586;-30
2023/05/21 08:50:19;;;;;;;10.93;7.07;;;16.40;99.90;;;;;;5017731;28;89361;-31
2023/05/21 08:52:45;;;;;;;10.02;6.70;;;16.50;99.90;;;;;;5017750;28;89570;-32
2023/05/21 08:55:11;;;;;;;9.43;6.55;;;16.40;99.90;;;;;;5018384;28;90331;-32
2023/05/21 08:57:41;;;;;;;7.75;7.07;;;16.50;99.90;;;;;;5016907;28;90935;-31
2023/05/21 09:00:07;;;;;;;8.50;6.45;;;16.60;99.90;;;;;;5017116;28;90344;-35
2023/05/21 09:02:33;;;;;;;9.48;7.15;;;16.60;99.90;;;;;;5018304;28;88756;-32
2023/05/21 09:05:02;;;;;;;10.88;6.32;;;16.80;99.90;;;;;;5018174;28;90089;-33
2023/05/21 09:07:29;;;;;;;10.57;7.50;;;16.90;99.90;;;;;;4998895;28;89091;-35
2023/05/21 09:10:04;;;;;;;8.67;6.17;;;16.80;99.90;;;;;;5017499;28;89849;-32
2023/05/21 09:12:31;;;;;;;8.93;6.20;;;17.10;99.90;;;;;;5017845;28;89580;-31
2023/05/21 09:14:57;;;;;;;6.20;5.22;;;17.20;99.90;;;;;;5018106;28;89726;-31
2023/05/21 09:17:23;;;;;;;8.05;6.82;;;17.30;99.90;;;;;;5016085;28;89100;-32
2023/05/21 09:20:23;;;;;;;8.32;6.05;;;17.60;99.90;;;;;;5008174;28;90174;-34
2023/05/21 09:22:50;;;;;;;11.00;7.60;;;17.70;99.90;;;;;;4984505;28;88972;-32
2023/05/21 09:25:20;;;;;;;9.73;6.88;;;17.80;99.90;;;;;;4997301;28;90280;-33
2023/05/21 09:27:46;;;;;;;9.73;7.70;;;17.80;99.90;;;;;;4997425;28;89097;-35
2023/05/21 09:30:13;;;;;;;12.98;6.68;;;17.90;99.90;;;;;;4996853;28;89797;-33
2023/05/21 09:32:40;;;;;;;8.40;6.57;;;18.00;99.90;;;;;;4996739;28;89674;-33
2023/05/21 09:35:08;;;;;;;9.32;8.30;;;18.10;99.90;;;;;;4997996;28;89531;-35
2023/05/21 09:37:46;;;;;;;8.95;7.68;;;18.10;99.90;;;;;;4997076;28;89499;-32
2023/05/21 09:40:22;;;;;;;9.68;8.27;;;18.10;99.90;;;;;;4997325;28;88722;-33
2023/05/21 09:42:53;;;;;;;13.65;8.85;;;18.10;99.90;;;;;;4996879;28;88848;-34
2023/05/21 09:45:23;;;;;;;12.40;8.05;;;18.10;99.90;;;;;;4996739;28;90435;-34
2023/05/21 09:47:51;;;;;;;13.70;9.88;;;18.10;99.90;;;;;;4996409;28;90113;-34
2023/05/21 09:50:21;;;;;;;14.27;8.67;;;18.20;99.90;;;;;;4996553;28;90199;-31
2023/05/21 09:52:49;;;;;;;10.15;7.57;;;18.30;99.90;;;;;;4996774;28;88038;-32
2023/05/21 09:55:15;;;;;;;10.82;8.10;;;18.30;99.90;;;;;;4996917;28;89931;-33
2023/05/21 09:57:46;;;;;;;13.45;10.00;;;18.30;99.90;;;;;;4996638;28;89699;-34
2023/05/21 10:00:20;;;;;;;11.70;9.57;;;18.10;99.90;;;;;;4996384;28;89581;-31
2023/05/21 10:02:53;;;;;;;10.55;8.90;;;18.20;99.90;;;;;;4996125;28;89998;-33
2023/05/21 10:05:19;;;;;;;11.70;10.38;;;18.10;99.90;;;;;;4997068;28;90171;-34
2023/05/21 10:07:53;;;;;;;10.60;9.57;;;18.20;99.90;;;;;;4995250;28;89821;-34
2023/05/21 10:10:20;;;;;;;15.30;11.52;;;18.30;99.90;;;;;;4997139;28;89798;-33
2023/05/21 10:12:50;;;;;;;9.97;9.07;;;18.30;99.90;;;;;;4995824;28;89441;-32
2023/05/21 10:15:20;;;;;;;9.60;8.73;;;18.30;99.90;;;;;;4997284;28;90140;-34
2023/05/21 10:17:48;;;;;;;9.73;8.73;;;18.40;99.90;;;;;;4996442;28;89688;-32
2023/05/21 10:20:15;;;;;;;13.23;10.40;;;18.30;99.90;;;;;;4997047;28;89370;-32
2023/05/21 10:22:40;;;;;;;12.18;9.38;;;18.30;99.90;;;;;;4995541;28;87797;-32
2023/05/21 10:25:07;;;;;;;19.05;8.50;;;18.50;99.90;;;;;;4996871;28;90344;-36
2023/05/21 10:27:37;;;;;;;15.40;11.98;;;18.60;99.90;;;;;;4996285;28;91434;-33
2023/05/21 10:30:04;;;;;;;14.88;11.73;;;18.60;99.90;;;;;;4995816;28;91313;-32
2023/05/21 10:32:31;;;;;;;14.23;9.65;;;18.60;99.90;;;;;;4995079;28;88716;-31
2023/05/21 10:34:57;;;;;;;16.73;12.68;;;18.70;99.90;;;;;;4997114;28;91004;-32
2023/05/21 10:37:25;;;;;;;14.55;11.43;;;18.70;99.90;;;;;;4995695;28;90491;-32
2023/05/21 10:39:51;;;;;;;14.45;11.65;;;18.70;99.90;;;;;;4995446;28;90344;-33
2023/05/21 10:42:22;;;;;;;15.20;11.18;;;18.80;99.90;;;;;;4995562;28;89124;-34
2023/05/21 10:45:13;;;;;;;15.55;12.80;;;18.90;99.90;;;;;;4995166;28;90253;-33
2023/05/21 10:48:16;;;;;;;17.25;14.90;;;19.00;99.90;;;;;;4996853;28;89498;-33
2023/05/21 10:51:15;;;;;;;18.88;11.70;;;19.00;99.90;;;;;;4999752;28;89848;-33
2023/05/21 10:53:50;;;;;;;15.52;12.32;;;19.10;99.90;;;;;;4998124;28;88846;-34
2023/05/21 10:56:23;;;;;;;14.95;11.88;;;19.20;99.90;;;;;;5000130;28;90269;-32
2023/05/21 10:59:27;;;;;;;17.58;13.32;;;19.10;99.90;;;;;;4998898;28;90492;-34
2023/05/21 11:01:54;;;;;;;14.15;12.75;;;19.20;99.90;;;;;;4999286;28;89543;-35
2023/05/21 11:04:26;;;;;;;15.20;13.65;;;19.20;99.90;;;;;;4997841;28;90042;-33
2023/05/21 11:06:51;;;;;;;17.55;15.50;;;19.30;99.90;;;;;;4999055;28;90212;-32
2023/05/21 11:09:17;;;;;;;18.15;14.93;;;19.20;99.90;;;;;;4998723;28;89842;-34
2023/05/21 11:11:50;;;;;;;17.02;13.45;;;19.20;99.90;;;;;;4999261;28;90507;-35
2023/05/21 11:14:37;;;;;;;17.95;13.10;;;19.30;99.90;;;;;;4998078;28;90141;-35
2023/05/21 11:17:06;;;;;;;22.80;15.10;;;19.40;99.90;;;;;;4998237;28;90854;-30
2023/05/21 11:19:42;;;;;;;16.90;13.52;;;19.40;99.90;;;;;;4998841;28;89827;-34
2023/05/21 11:22:20;;;;;;;19.63;14.55;;;19.40;99.90;;;;;;4999309;28;89365;-34
2023/05/21 11:24:46;;;;;;;21.73;16.48;;;19.40;99.90;;;;;;4999029;28;88748;-35
2023/05/21 11:27:12;;;;;;;19.30;16.48;;;19.40;99.90;;;;;;4998002;28;89886;-33
2023/05/21 11:29:43;;;;;;;20.33;17.48;;;19.30;99.90;;;;;;4997974;28;90661;-32
2023/05/21 11:32:14;;;;;;;19.52;17.13;;;19.40;99.90;;;;;;4998547;28;90646;-36
2023/05/21 11:34:47;;;;;;;20.38;16.15;;;19.40;99.90;;;;;;4999143;28;89756;-37
2023/05/21 11:37:15;;;;;;;20.48;15.90;;;19.50;99.90;;;;;;4998538;28;90218;-34
2023/05/21 11:39:41;;;;;;;21.13;17.35;;;19.60;99.90;;;;;;4997685;28;88959;-34
2023/05/21 11:42:07;;;;;;;19.70;15.85;;;19.70;99.90;;;;;;4998197;28;89600;-35
2023/05/21 11:44:40;;;;;;;18.48;16.33;;;19.70;99.90;;;;;;4997837;28;88997;-31
2023/05/21 11:47:08;;;;;;;19.15;16.83;;;19.90;99.90;;;;;;4998672;28;89813;-37
2023/05/21 11:49:35;;;;;;;18.73;16.30;;;19.90;99.90;;;;;;4998353;28;89453;-32
2023/05/21 11:52:03;;;;;;;23.00;18.23;;;19.80;99.90;;;;;;4998348;28;88456;-33
2023/05/21 11:54:36;;;;;;;22.13;17.40;;;19.90;99.90;;;;;;4997194;28;89603;-32
2023/05/21 11:57:08;;;;;;;20.63;17.17;;;20.10;99.90;;;;;;4998732;28;90852;-31
2023/05/21 11:59:35;;;;;;;23.30;19.48;;;20.00;99.90;;;;;;4997220;28;89611;-34
2023/05/21 12:02:01;;;;;;;23.23;19.02;;;20.10;99.90;;;;;;5003650;28;90189;-33
2023/05/21 12:04:35;;;;;;;21.55;18.38;;;20.00;99.90;;;;;;5006702;28;90009;-32
2023/05/21 12:07:03;;;;;;;21.95;17.95;;;20.10;99.90;;;;;;5008562;28;89764;-35
2023/05/21 12:09:29;;;;;;;23.40;16.83;;;20.10;99.90;;;;;;5017225;28;91382;-34
2023/05/21 12:11:55;;;;;;;20.25;16.73;;;20.10;99.90;;;;;;5018057;27;89597;-32
2023/05/21 12:14:21;;;;;;;26.08;18.92;;;20.30;99.90;;;;;;5018212;27;88229;-36
2023/05/21 12:16:46;;;;;;;25.90;18.95;;;20.30;99.90;;;;;;5017655;28;90785;-33
2023/05/21 12:19:16;;;;;;;20.55;16.75;;;20.40;99.90;;;;;;5017394;28;89439;-33
2023/05/21 12:21:42;;;;;;;23.23;18.25;;;20.30;99.90;;;;;;5017878;28;89484;-36
2023/05/21 12:24:07;;;;;;;24.92;18.13;;;20.20;99.90;;;;;;5017520;28;88597;-35
2023/05/21 12:26:34;;;;;;;18.98;16.52;;;20.40;99.90;;;;;;5017779;27;90049;-38
2023/05/21 12:29:01;;;;;;;22.95;18.98;;;20.50;99.90;;;;;;5017536;28;89352;-34
2023/05/21 12:31:29;;;;;;;22.95;18.95;;;20.50;99.90;;;;;;5017565;28;91746;-34
2023/05/21 12:33:55;;;;;;;28.13;19.08;;;20.30;99.90;;;;;;5017308;28;89167;-34
2023/05/21 12:36:30;;;;;;;24.00;19.25;;;20.40;99.90;;;;;;5018125;28;90882;-35
2023/05/21 12:38:56;;;;;;;20.65;17.92;;;20.50;99.90;;;;;;5017684;27;90182;-35
2023/05/21 12:41:22;;;;;;;20.02;17.80;;;20.70;99.90;;;;;;5016962;27;89164;-32
2023/05/21 12:43:49;;;;;;;21.90;19.65;;;20.80;99.90;;;;;;5017512;27;89555;-33